< < Back
Terminal Aerodrome Forecast


Current Version              Previous Versions:   1  2  3  4  5  6  7  8  9  

Terminal Aerodrome Forecast

563
FTUS44 KHUN 252320
TAFHSV
TAF
KHSV 252320Z 2600/2624 VRB03KT P6SM SCT250
     FM261600 26010KT P6SM SCT060
     FM261900 29010KT P6SM VCTS BKN050CB=



Latest METAR

341
SAUS80 KWBC 261000 RRB
MTRHSV
METAR KHSV 260953Z AUTO 00000KT 10SM CLR 24/17 A3000 RMK AO2 SLP148
T02390172


USA.gov is the U.S. government's official web portal to all federal, state and local government web resources and services.